createdAt,value
2018-01-30T00:02:28.908Z,9.88
2018-01-30T00:04:59.229Z,9.77
2018-01-30T00:07:26.682Z,9.78
2018-01-30T00:09:54.123Z,9.74
2018-01-30T00:12:21.592Z,9.69
2018-01-30T00:15:17.648Z,9.73
2018-01-30T00:17:49.817Z,9.98
2018-01-30T00:20:17.284Z,10.24
2018-01-30T00:22:44.825Z,9.89
2018-01-30T00:25:27.956Z,9.78
2018-01-30T00:27:56.325Z,10.17
2018-01-30T00:30:23.820Z,10.07
2018-01-30T00:32:54.349Z,10.09
2018-01-30T00:35:21.784Z,9.68
2018-01-30T00:37:49.413Z,9.27
2018-01-30T00:40:17.689Z,9.54
2018-01-30T00:42:45.146Z,9.70
2018-01-30T00:45:22.313Z,9.43
2018-01-30T00:47:49.773Z,9.46
2018-01-30T00:50:19.288Z,9.41
2018-01-30T00:52:46.750Z,9.08
2018-01-30T00:55:20.973Z,9.02
2018-01-30T00:57:48.430Z,8.98
2018-01-30T01:00:22.801Z,8.81
2018-01-30T01:02:50.262Z,8.85
2018-01-30T01:05:32.584Z,9.16
2018-01-30T01:08:06.524Z,8.94
2018-01-30T01:10:47.586Z,9.04
2018-01-30T01:13:15.789Z,8.74
2018-01-30T01:15:43.809Z,8.44
2018-01-30T01:18:14.694Z,8.63
2018-01-30T01:20:57.037Z,8.87
2018-01-30T01:23:27.452Z,8.45
2018-01-30T01:25:54.909Z,8.40
2018-01-30T01:28:22.416Z,8.33
2018-01-30T01:31:04.748Z,8.13
2018-01-30T01:33:36.709Z,7.88
2018-01-30T01:36:19.309Z,7.77
2018-01-30T01:38:59.172Z,7.95
2018-01-30T01:41:29.582Z,8.34
2018-01-30T01:49:42.289Z,8.83
2018-01-30T01:52:09.724Z,8.91
2018-01-30T01:54:37.191Z,8.69
2018-01-30T01:57:04.636Z,8.64
2018-01-30T01:59:32.077Z,8.41
2018-01-30T02:01:59.535Z,8.16
2018-01-30T02:04:26.989Z,8.25
2018-01-30T02:06:54.639Z,8.15
2018-01-30T02:09:22.073Z,8.10
2018-01-30T02:11:49.545Z,7.92
2018-01-30T02:14:17.003Z,7.93
2018-01-30T02:16:45.472Z,7.85
2018-01-30T02:19:12.944Z,7.85
2018-01-30T02:21:40.401Z,7.66
2018-01-30T02:24:07.855Z,7.64
2018-01-30T02:26:35.325Z,7.44
2018-01-30T02:29:03.256Z,7.54
2018-01-30T02:31:30.933Z,7.35
2018-01-30T02:33:58.437Z,7.47
2018-01-30T02:36:25.841Z,7.33
2018-01-30T02:38:53.336Z,7.27
2018-01-30T02:41:21.167Z,7.23
2018-01-30T02:43:49.034Z,7.23
2018-01-30T02:46:16.473Z,7.59
2018-01-30T02:48:43.912Z,7.37
2018-01-30T02:51:11.381Z,7.24
2018-01-30T02:53:38.980Z,7.08
2018-01-30T02:56:06.449Z,7.15
2018-01-30T02:58:33.897Z,7.12
2018-01-30T03:01:01.341Z,7.29
2018-01-30T03:03:28.801Z,7.00
2018-01-30T03:05:58.593Z,7.05
2018-01-30T03:08:26.286Z,6.66
2018-01-30T03:10:53.724Z,6.47
2018-01-30T03:13:21.163Z,6.31
2018-01-30T03:15:48.616Z,6.05
2018-01-30T03:18:16.052Z,5.98
2018-01-30T03:20:43.529Z,5.83
2018-01-30T03:23:10.965Z,5.48
2018-01-30T03:25:38.405Z,5.35
2018-01-30T03:28:05.892Z,5.63
2018-01-30T03:30:33.337Z,5.69
2018-01-30T03:33:00.817Z,5.79
2018-01-30T03:35:28.267Z,5.65
2018-01-30T03:37:55.710Z,5.67
2018-01-30T03:40:23.169Z,5.80
2018-01-30T03:42:50.613Z,5.32
2018-01-30T03:45:18.297Z,5.35
2018-01-30T03:47:45.737Z,5.02
2018-01-30T03:50:13.208Z,4.98
2018-01-30T03:52:40.660Z,4.71
2018-01-30T03:55:08.104Z,4.60
2018-01-30T03:57:36.059Z,4.63
2018-01-30T04:00:03.493Z,4.44
2018-01-30T04:02:30.932Z,4.26
2018-01-30T04:04:58.533Z,4.16
2018-01-30T04:07:25.976Z,4.01
2018-01-30T04:09:53.851Z,4.13
2018-01-30T04:12:21.313Z,4.18
2018-01-30T04:14:48.748Z,3.87
2018-01-30T04:17:16.213Z,3.91
2018-01-30T04:19:43.673Z,3.99
2018-01-30T04:22:11.248Z,3.99
2018-01-30T04:24:38.688Z,3.55
2018-01-30T04:27:06.128Z,3.41
2018-01-30T04:29:33.584Z,3.45
2018-01-30T04:32:01.033Z,3.41
2018-01-30T04:34:28.508Z,3.62
2018-01-30T04:36:55.968Z,3.42
2018-01-30T04:39:23.404Z,3.09
2018-01-30T04:41:53.794Z,3.32
2018-01-30T04:44:22.985Z,3.22
2018-01-30T04:46:54.693Z,3.13
2018-01-30T04:49:22.149Z,3.17
2018-01-30T04:51:49.585Z,3.03
2018-01-30T04:54:17.949Z,3.13
2018-01-30T04:56:59.748Z,3.35
2018-01-30T04:59:29.277Z,3.18
2018-01-30T05:02:08.625Z,3.08
2018-01-30T05:04:36.149Z,3.17
2018-01-30T05:07:05.285Z,3.05
2018-01-30T05:09:42.717Z,3.16
2018-01-30T05:12:14.253Z,3.12
2018-01-30T05:14:45.409Z,3.10
2018-01-30T05:17:14.711Z,3.17
2018-01-30T05:19:42.162Z,3.29
2018-01-30T05:22:26.313Z,3.25
2018-01-30T05:24:55.154Z,3.31
2018-01-30T05:27:33.821Z,3.25
2018-01-30T05:30:01.257Z,3.04
2018-01-30T05:32:32.092Z,3.28
2018-01-30T05:35:03.356Z,3.16
2018-01-30T05:37:43.305Z,3.16
2018-01-30T05:40:13.113Z,3.01
2018-01-30T05:42:42.700Z,2.95
2018-01-30T05:45:26.024Z,2.70
2018-01-30T05:47:57.891Z,2.62
2018-01-30T05:50:27.634Z,2.67
2018-01-30T05:53:00.157Z,2.68
2018-01-30T05:55:29.092Z,2.66
2018-01-30T05:58:09.940Z,2.52
2018-01-30T06:00:38.154Z,2.55
2018-01-30T06:03:13.778Z,2.44
2018-01-30T06:05:41.458Z,2.36
2018-01-30T06:08:09.500Z,2.32
2018-01-30T06:10:38.887Z,2.41
2018-01-30T06:13:07.904Z,2.56
2018-01-30T06:15:51.358Z,2.50
2018-01-30T06:18:18.816Z,2.52
2018-01-30T06:20:46.274Z,2.57
2018-01-30T06:23:15.957Z,2.55
2018-01-30T06:25:53.736Z,2.55
2018-01-30T06:28:22.002Z,2.37
2018-01-30T06:30:51.217Z,2.34
2018-01-30T06:33:19.692Z,2.29
2018-01-30T06:35:47.149Z,2.44
2018-01-30T06:38:14.596Z,2.35
2018-01-30T06:40:43.207Z,2.19
2018-01-30T06:43:10.646Z,2.26
2018-01-30T06:45:38.150Z,2.20
2018-01-30T06:48:05.598Z,2.28
2018-01-30T06:50:33.032Z,2.24
2018-01-30T06:53:00.513Z,2.15
2018-01-30T06:55:27.945Z,2.25
2018-01-30T06:57:55.545Z,2.36
2018-01-30T07:00:23.587Z,2.48
2018-01-30T07:02:51.069Z,2.49
2018-01-30T07:05:18.548Z,2.35
2018-01-30T07:07:46.032Z,2.21
2018-01-30T07:10:13.508Z,2.16
2018-01-30T07:12:41.183Z,2.20
2018-01-30T07:15:08.645Z,2.26
2018-01-30T07:17:36.105Z,2.36
2018-01-30T07:20:03.543Z,2.37
2018-01-30T07:22:31.229Z,2.41
2018-01-30T07:24:59.401Z,2.39
2018-01-30T07:27:26.882Z,2.37
2018-01-30T07:29:54.357Z,2.35
2018-01-30T07:34:50.017Z,2.36
2018-01-30T07:37:17.452Z,2.67
2018-01-30T07:39:44.900Z,2.72
2018-01-30T07:42:14.168Z,2.87
2018-01-30T07:44:41.609Z,2.86
2018-01-30T07:47:09.085Z,2.96
2018-01-30T07:49:36.528Z,3.22
2018-01-30T07:52:03.988Z,3.24
2018-01-30T07:54:31.472Z,3.35
2018-01-30T07:56:58.940Z,3.39
2018-01-30T07:59:26.549Z,3.53
2018-01-30T08:01:54.012Z,3.59
2018-01-30T08:04:21.480Z,3.51
2018-01-30T08:06:48.948Z,3.48
2018-01-30T08:09:16.392Z,3.55
2018-01-30T08:11:43.869Z,3.73
2018-01-30T08:14:11.328Z,3.79
2018-01-30T08:16:38.760Z,3.87
2018-01-30T08:19:06.282Z,3.91
2018-01-30T08:21:33.742Z,4.03
2018-01-30T08:24:01.226Z,4.11
2018-01-30T08:26:28.671Z,4.16
2018-01-30T08:28:56.304Z,4.36
2018-01-30T08:31:23.762Z,4.48
2018-01-30T08:33:51.213Z,4.51
2018-01-30T08:36:18.729Z,4.60
2018-01-30T08:38:46.164Z,4.69
2018-01-30T08:41:13.612Z,4.83
2018-01-30T08:43:41.097Z,5.10
2018-01-30T08:46:09.999Z,5.32
2018-01-30T08:48:41.963Z,5.47
2018-01-30T08:51:15.274Z,5.46
2018-01-30T08:53:45.961Z,5.48
2018-01-30T08:56:18.204Z,5.37
2018-01-30T08:58:46.875Z,5.52
2018-01-30T09:01:19.278Z,5.55
2018-01-30T09:03:46.756Z,5.89
2018-01-30T09:06:17.073Z,5.95
2018-01-30T09:08:45.337Z,5.66
2018-01-30T09:11:12.790Z,5.65
2018-01-30T09:13:40.236Z,5.89
2018-01-30T09:16:07.697Z,5.66
2018-01-30T09:18:35.168Z,5.85
2018-01-30T09:21:03.053Z,5.92
2018-01-30T09:23:30.505Z,6.15
2018-01-30T09:25:57.962Z,6.15
2018-01-30T09:28:25.428Z,6.34
2018-01-30T09:30:52.869Z,6.48
2018-01-30T09:33:20.627Z,6.40
2018-01-30T09:35:48.068Z,6.60
2018-01-30T09:38:15.508Z,6.55
2018-01-30T09:40:42.965Z,6.59
2018-01-30T09:43:10.401Z,6.71
2018-01-30T09:45:37.861Z,6.65
2018-01-30T09:48:05.302Z,6.85
2018-01-30T09:50:32.738Z,6.94
2018-01-30T09:53:00.266Z,6.82
2018-01-30T09:55:27.722Z,6.89
2018-01-30T09:57:55.196Z,6.86
2018-01-30T10:00:22.644Z,6.96
2018-01-30T10:02:50.078Z,6.85
2018-01-30T10:05:17.537Z,7.11
2018-01-30T10:07:44.973Z,7.10
2018-01-30T10:10:12.563Z,7.34
2018-01-30T10:12:40.002Z,7.36
2018-01-30T10:15:07.437Z,7.37
2018-01-30T10:17:34.900Z,7.33
2018-01-30T10:20:02.349Z,7.55
2018-01-30T10:22:29.833Z,7.58
2018-01-30T10:24:57.269Z,7.65
2018-01-30T10:27:24.721Z,7.79
2018-01-30T10:29:52.181Z,7.80
2018-01-30T10:32:19.620Z,7.66
2018-01-30T10:34:47.230Z,7.70
2018-01-30T10:37:14.698Z,7.72
2018-01-30T10:39:42.143Z,7.87
2018-01-30T10:42:09.636Z,7.92
2018-01-30T10:44:37.077Z,8.09
2018-01-30T10:47:04.713Z,7.95
2018-01-30T10:49:32.160Z,8.14
2018-01-30T10:51:59.613Z,8.07
2018-01-30T10:54:27.069Z,8.07
2018-01-30T10:56:54.776Z,7.98
2018-01-30T10:59:22.405Z,8.04
2018-01-30T11:01:49.852Z,7.97
2018-01-30T11:04:17.288Z,8.16
2018-01-30T11:06:44.757Z,8.22
2018-01-30T11:09:12.197Z,8.21
2018-01-30T11:11:39.668Z,7.97
2018-01-30T11:14:07.121Z,8.21
2018-01-30T11:16:34.569Z,8.33
2018-01-30T11:19:02.029Z,8.25
2018-01-30T11:21:29.477Z,8.26
2018-01-30T11:23:57.093Z,8.26
2018-01-30T11:26:24.537Z,8.36
2018-01-30T11:28:51.972Z,8.41
2018-01-30T11:31:19.437Z,8.40
2018-01-30T11:33:46.885Z,8.59
2018-01-30T11:36:14.559Z,8.59
2018-01-30T11:38:41.992Z,8.84
2018-01-30T11:41:09.431Z,8.98
2018-01-30T11:43:36.889Z,9.19
2018-01-30T11:46:04.343Z,9.53
2018-01-30T11:48:31.825Z,9.61
2018-01-30T11:50:59.273Z,9.50
2018-01-30T11:53:26.732Z,9.34
2018-01-30T11:55:54.194Z,9.52
2018-01-30T11:58:21.732Z,9.63
2018-01-30T12:00:49.512Z,9.58
2018-01-30T12:03:16.953Z,9.61
2018-01-30T12:05:44.401Z,9.56
2018-01-30T12:08:11.861Z,9.81
2018-01-30T12:10:39.292Z,9.89
2018-01-30T12:13:06.880Z,10.00
2018-01-30T12:15:34.332Z,10.19
2018-01-30T12:18:01.787Z,10.43
2018-01-30T12:20:29.257Z,10.70
2018-01-30T12:22:56.698Z,10.31
2018-01-30T12:25:24.307Z,10.65
2018-01-30T12:27:51.777Z,10.48
2018-01-30T12:30:19.225Z,10.87
2018-01-30T12:32:46.692Z,10.59
2018-01-30T12:35:14.147Z,11.03
2018-01-30T12:37:41.721Z,10.74
2018-01-30T12:40:09.160Z,10.81
2018-01-30T12:42:36.601Z,10.79
2018-01-30T12:45:04.094Z,10.86
2018-01-30T12:47:31.537Z,10.51
2018-01-30T12:49:59.112Z,10.79
2018-01-30T12:52:26.565Z,10.81
2018-01-30T12:54:54.019Z,10.62
2018-01-30T12:57:21.481Z,10.52
2018-01-30T12:59:48.936Z,10.84
2018-01-30T13:02:16.696Z,10.83
2018-01-30T13:04:44.143Z,10.60
2018-01-30T13:07:11.589Z,10.72
2018-01-30T13:09:39.053Z,10.73
2018-01-30T13:12:06.501Z,11.08
2018-01-30T13:14:34.245Z,10.99
2018-01-30T13:17:01.738Z,10.90
2018-01-30T13:19:29.176Z,10.77
2018-01-30T13:21:56.634Z,11.11
2018-01-30T13:24:24.093Z,10.72
2018-01-30T13:26:51.753Z,10.84
2018-01-30T13:29:19.209Z,11.20
2018-01-30T13:31:46.668Z,10.93
2018-01-30T13:34:14.165Z,11.20
2018-01-30T13:36:41.609Z,11.23
2018-01-30T13:39:09.785Z,11.02
2018-01-30T13:41:37.283Z,11.09
2018-01-30T13:44:04.729Z,11.33
2018-01-30T13:46:32.216Z,11.25
2018-01-30T13:48:59.684Z,10.94
2018-01-30T13:51:27.375Z,11.10
2018-01-30T13:53:54.844Z,10.92
2018-01-30T13:56:22.291Z,11.14
2018-01-30T13:58:49.953Z,11.16
2018-01-30T14:01:17.397Z,11.08
2018-01-30T14:03:45.023Z,11.04
2018-01-30T14:06:12.490Z,11.32
2018-01-30T14:08:39.961Z,11.50
2018-01-30T14:11:07.424Z,11.40
2018-01-30T14:13:34.913Z,11.63
2018-01-30T14:16:04.356Z,11.66
2018-01-30T14:18:31.796Z,11.61
2018-01-30T14:20:59.245Z,11.43
2018-01-30T14:23:26.719Z,11.31
2018-01-30T14:25:54.183Z,11.55
2018-01-30T14:28:21.852Z,11.60
2018-01-30T14:30:49.305Z,11.44
2018-01-30T14:33:16.758Z,11.56
2018-01-30T14:35:44.222Z,11.68
2018-01-30T14:38:11.668Z,11.53
2018-01-30T14:40:39.345Z,11.81
2018-01-30T14:43:06.790Z,11.38
2018-01-30T14:45:34.253Z,11.24
2018-01-30T14:48:02.073Z,11.17
2018-01-30T14:50:30.038Z,11.51
2018-01-30T14:52:57.920Z,11.09
2018-01-30T14:55:25.485Z,11.16
2018-01-30T14:57:52.893Z,10.93
2018-01-30T15:00:20.394Z,10.88
2018-01-30T15:02:47.862Z,10.80
2018-01-30T15:05:15.555Z,10.80
2018-01-30T15:07:43.081Z,10.79
2018-01-30T15:10:11.226Z,10.89
2018-01-30T15:12:38.770Z,10.86
2018-01-30T15:15:06.204Z,10.79
2018-01-30T15:17:33.676Z,10.57
2018-01-30T15:20:01.957Z,10.49
2018-01-30T15:22:29.463Z,10.52
2018-01-30T15:24:58.189Z,10.46
2018-01-30T15:27:25.701Z,10.47
2018-01-30T15:29:53.434Z,10.38
2018-01-30T15:32:20.967Z,10.42
2018-01-30T15:34:48.475Z,10.43
2018-01-30T15:37:16.013Z,10.33
2018-01-30T15:39:43.473Z,10.42
2018-01-30T15:42:11.157Z,10.37
2018-01-30T15:44:38.896Z,10.37
2018-01-30T15:47:06.442Z,10.46
2018-01-30T15:49:34.100Z,10.21
2018-01-30T15:52:01.656Z,10.07
2018-01-30T15:54:29.580Z,10.51
2018-01-30T15:56:57.080Z,9.88
2018-01-30T15:59:24.949Z,9.65
2018-01-30T16:01:52.412Z,9.73
2018-01-30T16:04:19.849Z,9.65
2018-01-30T16:06:47.469Z,9.52
2018-01-30T16:09:14.905Z,9.41
2018-01-30T16:11:42.893Z,9.29
2018-01-30T16:16:37.097Z,9.26
2018-01-30T16:19:04.752Z,9.23
2018-01-30T16:21:32.188Z,9.05
2018-01-30T16:23:59.620Z,8.97
2018-01-30T16:26:27.498Z,8.98
2018-01-30T16:28:54.939Z,9.09
2018-01-30T16:31:22.417Z,9.20
2018-01-30T16:33:49.853Z,9.09
2018-01-30T16:36:17.289Z,9.03
2018-01-30T16:38:44.753Z,9.01
2018-01-30T16:41:12.192Z,8.99
2018-01-30T16:43:39.768Z,8.78
2018-01-30T16:46:07.204Z,8.79
2018-01-30T16:48:34.648Z,8.81
2018-01-30T16:51:02.110Z,8.79
2018-01-30T16:53:29.557Z,8.78
2018-01-30T16:55:57.315Z,8.62
2018-01-30T16:58:24.757Z,8.52
2018-01-30T17:00:52.573Z,8.46
2018-01-30T17:03:20.150Z,8.42
2018-01-30T17:05:47.646Z,8.24
2018-01-30T17:08:15.346Z,8.13
2018-01-30T17:10:42.788Z,8.06
2018-01-30T17:13:10.241Z,8.07
2018-01-30T17:15:37.728Z,8.06
2018-01-30T17:18:05.177Z,7.94
2018-01-30T17:20:32.907Z,7.94
2018-01-30T17:23:00.395Z,7.86
2018-01-30T17:25:27.880Z,7.83
2018-01-30T17:27:55.413Z,7.79
2018-01-30T17:30:23.001Z,7.92
2018-01-30T17:32:50.625Z,7.89
2018-01-30T17:35:18.097Z,7.68
2018-01-30T17:37:45.548Z,7.40
2018-01-30T17:40:13.020Z,7.33
2018-01-30T17:42:40.488Z,7.42
2018-01-30T17:45:08.129Z,7.58
2018-01-30T17:47:35.597Z,7.62
2018-01-30T17:50:03.084Z,7.58
2018-01-30T17:52:30.539Z,7.60
2018-01-30T17:54:57.989Z,7.62
2018-01-30T17:57:25.520Z,7.61
2018-01-30T17:59:52.996Z,7.59
2018-01-30T18:02:20.436Z,7.49
2018-01-30T18:04:47.909Z,7.38
2018-01-30T18:07:15.377Z,7.33
2018-01-30T18:09:43.059Z,7.37
2018-01-30T18:12:10.508Z,7.19
2018-01-30T18:14:37.953Z,7.14
2018-01-30T18:17:05.417Z,6.94
2018-01-30T18:19:33.185Z,6.76
2018-01-30T18:22:00.897Z,6.76
2018-01-30T18:24:28.358Z,6.70
2018-01-30T18:26:55.804Z,6.38
2018-01-30T18:29:23.274Z,6.24
2018-01-30T18:31:50.949Z,6.30
2018-01-30T18:34:18.752Z,5.93
2018-01-30T18:36:46.195Z,5.93
2018-01-30T18:39:13.658Z,5.99
2018-01-30T18:41:41.129Z,5.96
2018-01-30T18:44:08.831Z,5.90
2018-01-30T18:46:36.312Z,5.53
2018-01-30T18:49:03.749Z,5.51
2018-01-30T18:51:31.185Z,5.65
2018-01-30T18:53:58.644Z,5.68
2018-01-30T18:56:26.107Z,5.27
2018-01-30T18:58:54.045Z,5.31
2018-01-30T19:01:21.485Z,5.38
2018-01-30T19:03:48.933Z,5.34
2018-01-30T19:06:16.410Z,5.43
2018-01-30T19:08:43.845Z,5.37
2018-01-30T19:11:11.502Z,5.45
2018-01-30T19:13:38.936Z,5.56
2018-01-30T19:16:06.427Z,5.54
2018-01-30T19:18:34.116Z,5.38
2018-01-30T19:21:01.558Z,5.45
2018-01-30T19:23:29.520Z,5.41
2018-01-30T19:25:56.953Z,5.45
2018-01-30T19:28:24.441Z,5.36
2018-01-30T19:30:52.447Z,5.52
2018-01-30T19:33:19.903Z,5.75
2018-01-30T19:35:48.272Z,5.81
2018-01-30T19:38:15.730Z,5.85
2018-01-30T19:40:44.737Z,5.88
2018-01-30T19:43:12.242Z,5.87
2018-01-30T19:45:39.681Z,5.86
2018-01-30T19:48:07.385Z,5.92
2018-01-30T19:50:34.835Z,5.67
2018-01-30T19:53:02.951Z,5.63
2018-01-30T19:55:30.424Z,5.74
2018-01-30T19:57:59.829Z,5.86
2018-01-30T20:00:27.297Z,5.95
2018-01-30T20:02:54.839Z,5.89
2018-01-30T20:05:22.354Z,5.83
2018-01-30T20:07:49.864Z,5.86
2018-01-30T20:10:17.309Z,5.80
2018-01-30T20:12:44.772Z,5.83
2018-01-30T20:15:12.230Z,5.80
2018-01-30T20:17:39.689Z,5.87
2018-01-30T20:20:07.129Z,5.86
2018-01-30T20:22:34.720Z,5.90
2018-01-30T20:25:02.157Z,6.00
2018-01-30T20:27:29.598Z,6.13
2018-01-30T20:29:57.081Z,6.28
2018-01-30T20:32:24.521Z,6.14
2018-01-30T20:34:52.054Z,6.17
2018-01-30T20:37:22.791Z,6.39
2018-01-30T20:39:50.244Z,6.54
2018-01-30T20:42:17.699Z,6.42
2018-01-30T20:44:45.168Z,6.54
2018-01-30T20:47:12.615Z,6.57
2018-01-30T20:49:40.057Z,6.54
2018-01-30T20:52:08.285Z,6.50
2018-01-30T20:54:35.753Z,6.63
2018-01-30T20:57:03.201Z,6.62
2018-01-30T20:59:31.808Z,6.51
2018-01-30T21:01:59.249Z,6.60
2018-01-30T21:04:26.709Z,7.02
2018-01-30T21:06:54.210Z,6.82
2018-01-30T21:09:21.661Z,6.71
2018-01-30T21:11:49.391Z,6.74
2018-01-30T21:14:17.197Z,6.85
2018-01-30T21:16:44.670Z,6.74
2018-01-30T21:19:12.136Z,6.79
2018-01-30T21:21:39.585Z,6.67
2018-01-30T21:24:07.075Z,6.53
2018-01-30T21:26:34.543Z,6.51
2018-01-30T21:29:01.987Z,6.57
2018-01-30T21:31:29.455Z,6.56
2018-01-30T21:33:56.909Z,6.54
2018-01-30T21:36:24.558Z,6.46
2018-01-30T21:38:52.005Z,6.06
2018-01-30T21:41:19.453Z,6.02
2018-01-30T21:43:46.945Z,6.06
2018-01-30T21:46:14.402Z,6.22
2018-01-30T21:48:41.898Z,6.48
2018-01-30T21:51:09.347Z,6.75
2018-01-30T21:53:36.963Z,7.14
2018-01-30T21:56:04.415Z,6.93
2018-01-30T21:58:31.865Z,6.84
2018-01-30T22:00:59.360Z,6.81
2018-01-30T22:03:26.834Z,6.84
2018-01-30T22:05:54.309Z,6.77
2018-01-30T22:08:21.767Z,6.87
2018-01-30T22:10:49.357Z,6.80
2018-01-30T22:13:16.797Z,6.78
2018-01-30T22:15:45.193Z,6.66
2018-01-30T22:18:12.937Z,6.59
2018-01-30T22:20:40.381Z,6.58
2018-01-30T22:23:08.033Z,6.88
2018-01-30T22:25:35.480Z,6.78
2018-01-30T22:28:02.927Z,6.75
2018-01-30T22:30:30.392Z,6.60
2018-01-30T22:32:57.836Z,6.63
2018-01-30T22:35:25.472Z,6.57
2018-01-30T22:37:52.937Z,6.65
2018-01-30T22:40:20.389Z,6.44
2018-01-30T22:42:47.879Z,6.42
2018-01-30T22:45:15.324Z,6.51
